Time;durP1;ratioP1;P1;durP2;ratioP2;P2;SDS_P1;SDS_P2;PMS_P1;PMS_P2;Temp;Humidity;BMP_temperature;BMP_pressure;BME280_temperature;BME280_humidity;BME280_pressure;Samples;Min_cycle;Max_cycle;Signal;HPM_P1;HPM_P2
2024/03/01 00:00:04;;;;;;;31.65;19.17;;;;;;;;;;6257515;28;20040;-77
2024/03/01 00:03:09;;;;;;;36.20;18.08;;;;;;;;;;6269108;28;20658;-78
2024/03/01 00:06:12;;;;;;;32.42;18.98;;;;;;;;;;6287169;28;20052;-77
2024/03/01 00:09:17;;;;;;;41.08;20.75;;;;;;;;;;6268698;28;20045;-78
2024/03/01 00:12:22;;;;;;;36.35;17.48;;;;;;;;;;6267728;28;20052;-78
2024/03/01 00:15:25;;;;;;;34.83;18.70;;;;;;;;;;6278590;28;20040;-78
2024/03/01 00:18:27;;;;;;;32.17;16.75;;;;;;;;;;6269425;28;20052;-78
2024/03/01 00:21:31;;;;;;;36.50;20.23;;;;;;;;;;6255221;28;20032;-78
2024/03/01 00:24:36;;;;;;;31.83;19.42;;;;;;;;;;6265024;28;20040;-77
2024/03/01 00:27:40;;;;;;;30.55;16.63;;;;;;;;;;6278622;28;20053;-78
2024/03/01 00:30:44;;;;;;;28.08;15.82;;;;;;;;;;6271742;28;20072;-78
2024/03/01 00:33:46;;;;;;;27.10;14.55;;;;;;;;;;6286122;28;20051;-77
2024/03/01 00:36:49;;;;;;;26.77;14.60;;;;;;;;;;6273592;28;20081;-79
2024/03/01 00:39:51;;;;;;;26.40;14.77;;;;;;;;;;6278285;28;20049;-77
2024/03/01 00:42:54;;;;;;;27.67;14.57;;;;;;;;;;6318720;28;20040;-78
2024/03/01 00:45:57;;;;;;;24.65;14.07;;;;;;;;;;6274535;28;20150;-78
2024/03/01 00:49:04;;;;;;;23.25;14.35;;;;;;;;;;6288250;28;20174;-78
2024/03/01 00:52:07;;;;;;;22.50;12.75;;;;;;;;;;6293260;28;20051;-77
2024/03/01 00:55:09;;;;;;;22.23;11.40;;;;;;;;;;6266911;28;20587;-78
2024/03/01 00:58:11;;;;;;;17.77;11.52;;;;;;;;;;6258206;28;20485;-77
2024/03/01 01:01:15;;;;;;;23.77;13.18;;;;;;;;;;6287866;28;20044;-78
2024/03/01 01:04:17;;;;;;;23.38;13.18;;;;;;;;;;6290889;28;20135;-79
2024/03/01 01:07:21;;;;;;;20.55;12.38;;;;;;;;;;6254561;28;20568;-79
2024/03/01 01:10:24;;;;;;;24.13;13.40;;;;;;;;;;6289247;28;20058;-79
2024/03/01 01:13:27;;;;;;;24.42;12.68;;;;;;;;;;6283890;28;20513;-78
2024/03/01 01:16:29;;;;;;;20.15;11.23;;;;;;;;;;6286191;28;20796;-78
2024/03/01 01:19:32;;;;;;;21.00;15.27;;;;;;;;;;6288419;28;20044;-79
2024/03/01 01:22:34;;;;;;;20.60;10.60;;;;;;;;;;6249008;28;20053;-79
2024/03/01 01:25:37;;;;;;;19.67;10.18;;;;;;;;;;6259390;28;20052;-78
2024/03/01 01:28:39;;;;;;;22.67;11.68;;;;;;;;;;6276629;28;20040;-78
2024/03/01 01:31:41;;;;;;;15.88;9.75;;;;;;;;;;6282977;28;20055;-78
2024/03/01 01:34:44;;;;;;;18.17;14.55;;;;;;;;;;6254067;28;20040;-78
2024/03/01 01:37:47;;;;;;;21.98;10.95;;;;;;;;;;6279996;28;20056;-79
2024/03/01 01:40:50;;;;;;;23.55;15.32;;;;;;;;;;6267075;28;20142;-78
2024/03/01 01:43:54;;;;;;;20.13;14.38;;;;;;;;;;6282503;28;20140;-77
2024/03/01 01:46:56;;;;;;;19.90;10.68;;;;;;;;;;6281516;28;20114;-78
2024/03/01 01:49:59;;;;;;;22.48;14.15;;;;;;;;;;6260375;28;20634;-78
2024/03/01 01:53:03;;;;;;;22.52;13.00;;;;;;;;;;6243771;28;20898;-78
2024/03/01 01:56:18;;;;;;;18.90;10.55;;;;;;;;;;6270319;28;20461;-77
2024/03/01 01:59:20;;;;;;;20.50;11.68;;;;;;;;;;6271924;28;20557;-79
2024/03/01 02:02:24;;;;;;;23.45;13.45;;;;;;;;;;6289002;28;20110;-78
2024/03/01 02:05:26;;;;;;;26.35;13.38;;;;;;;;;;6287757;28;20052;-78
2024/03/01 02:08:29;;;;;;;24.25;12.38;;;;;;;;;;6272122;28;20049;-78
2024/03/01 02:11:31;;;;;;;24.65;13.48;;;;;;;;;;6274476;28;20089;-78
2024/03/01 02:14:33;;;;;;;28.13;14.07;;;;;;;;;;6259893;28;20048;-78
2024/03/01 02:17:36;;;;;;;20.98;12.50;;;;;;;;;;6262993;28;20552;-77
2024/03/01 02:20:49;;;;;;;27.50;15.60;;;;;;;;;;6261790;28;20048;-79
2024/03/01 02:23:52;;;;;;;26.52;13.52;;;;;;;;;;6245600;28;20067;-78
2024/03/01 02:26:55;;;;;;;29.65;16.45;;;;;;;;;;6271443;28;20045;-79
2024/03/01 02:30:03;;;;;;;30.08;16.88;;;;;;;;;;6293403;28;20082;-78
2024/03/01 02:33:05;;;;;;;28.50;14.38;;;;;;;;;;6270467;28;20366;-79
2024/03/01 02:36:08;;;;;;;32.28;15.38;;;;;;;;;;6255371;28;20048;-78
2024/03/01 02:39:18;;;;;;;23.20;12.65;;;;;;;;;;6274223;28;20896;-78
2024/03/01 02:42:21;;;;;;;29.65;20.52;;;;;;;;;;6299362;28;20044;-78
2024/03/01 02:45:26;;;;;;;27.75;18.77;;;;;;;;;;6289037;28;20123;-79
2024/03/01 02:48:28;;;;;;;30.50;16.70;;;;;;;;;;6281951;28;20547;-79
2024/03/01 02:51:30;;;;;;;28.60;15.55;;;;;;;;;;6258159;28;20089;-78
2024/03/01 02:54:32;;;;;;;29.45;15.52;;;;;;;;;;6281333;28;20045;-78
2024/03/01 02:57:35;;;;;;;30.33;15.90;;;;;;;;;;6299382;28;20044;-78
2024/03/01 03:00:38;;;;;;;27.60;14.00;;;;;;;;;;6295147;28;20838;-78
2024/03/01 03:03:40;;;;;;;24.33;14.93;;;;;;;;;;6294332;28;20047;-79
2024/03/01 03:06:42;;;;;;;28.00;17.25;;;;;;;;;;6275106;28;20524;-79
2024/03/01 03:09:49;;;;;;;24.92;14.63;;;;;;;;;;6270519;28;20048;-79
2024/03/01 03:12:51;;;;;;;23.98;12.30;;;;;;;;;;6282254;28;20041;-79
2024/03/01 03:15:53;;;;;;;24.52;13.38;;;;;;;;;;6285593;28;20044;-79
2024/03/01 03:18:55;;;;;;;23.95;14.63;;;;;;;;;;6266202;28;20140;-78
2024/03/01 03:21:58;;;;;;;28.75;18.98;;;;;;;;;;6289924;28;20037;-79
2024/03/01 03:25:00;;;;;;;26.38;15.27;;;;;;;;;;6270272;28;20060;-79
2024/03/01 03:28:03;;;;;;;27.08;15.90;;;;;;;;;;6258157;28;20605;-78
2024/03/01 03:31:06;;;;;;;27.25;15.55;;;;;;;;;;6278174;28;20739;-78
2024/03/01 03:34:09;;;;;;;27.38;15.18;;;;;;;;;;6289610;28;20441;-79
2024/03/01 03:37:12;;;;;;;27.35;15.63;;;;;;;;;;6267451;28;20897;-78
2024/03/01 03:40:15;;;;;;;26.48;18.92;;;;;;;;;;6292519;28;20635;-78
2024/03/01 03:43:17;;;;;;;30.67;17.50;;;;;;;;;;6301504;28;20040;-77
2024/03/01 03:46:19;;;;;;;27.52;14.50;;;;;;;;;;6253762;28;20044;-78
2024/03/01 03:49:23;;;;;;;24.50;13.73;;;;;;;;;;6276273;28;20139;-77
2024/03/01 03:52:25;;;;;;;26.90;16.05;;;;;;;;;;6250527;28;20132;-77
2024/03/01 03:55:28;;;;;;;26.27;14.75;;;;;;;;;;6274568;28;20058;-79
2024/03/01 03:58:30;;;;;;;22.20;14.75;;;;;;;;;;6290793;28;20048;-79
2024/03/01 04:01:33;;;;;;;27.42;15.45;;;;;;;;;;6279094;28;20079;-79
2024/03/01 04:04:35;;;;;;;24.85;15.70;;;;;;;;;;6292909;28;20071;-78
2024/03/01 04:07:42;;;;;;;26.02;13.77;;;;;;;;;;6253509;28;20610;-79
2024/03/01 04:10:45;;;;;;;25.20;15.57;;;;;;;;;;6271026;28;20635;-79
2024/03/01 04:13:47;;;;;;;29.25;14.60;;;;;;;;;;6260099;28;20482;-79
2024/03/01 04:16:49;;;;;;;31.23;15.43;;;;;;;;;;6273433;28;20044;-79
2024/03/01 04:19:52;;;;;;;27.08;16.13;;;;;;;;;;6276155;28;20044;-79
2024/03/01 04:22:54;;;;;;;28.80;15.55;;;;;;;;;;6297549;28;20049;-79
2024/03/01 04:25:57;;;;;;;33.80;17.00;;;;;;;;;;6287679;28;20083;-79
2024/03/01 04:29:00;;;;;;;25.52;15.55;;;;;;;;;;6280583;28;20049;-79
2024/03/01 04:32:03;;;;;;;28.55;15.25;;;;;;;;;;6293573;28;20044;-78
2024/03/01 04:35:05;;;;;;;25.15;15.75;;;;;;;;;;6253312;28;20048;-78
2024/03/01 04:38:10;;;;;;;29.17;15.57;;;;;;;;;;6266148;28;20044;-78
2024/03/01 04:41:18;;;;;;;29.23;17.08;;;;;;;;;;6262182;28;20048;-79
2024/03/01 04:44:22;;;;;;;27.45;16.20;;;;;;;;;;6247915;28;20804;-78
2024/03/01 04:47:23;;;;;;;28.23;15.00;;;;;;;;;;6269571;28;20517;-78
2024/03/01 04:50:27;;;;;;;32.13;16.55;;;;;;;;;;6288190;28;20044;-79
2024/03/01 04:53:29;;;;;;;26.70;15.00;;;;;;;;;;6285085;28;20048;-79
2024/03/01 04:56:32;;;;;;;28.10;14.68;;;;;;;;;;6296581;28;20035;-78
2024/03/01 04:59:38;;;;;;;27.23;14.70;;;;;;;;;;6284992;28;20102;-78
2024/03/01 05:02:42;;;;;;;28.85;16.67;;;;;;;;;;6288039;28;20062;-79
2024/03/01 05:05:44;;;;;;;28.15;15.30;;;;;;;;;;6281058;28;20048;-79
2024/03/01 05:08:47;;;;;;;25.90;15.30;;;;;;;;;;6265986;28;20746;-78
2024/03/01 05:11:51;;;;;;;25.88;15.85;;;;;;;;;;6297530;28;20775;-78
2024/03/01 05:14:53;;;;;;;27.08;18.23;;;;;;;;;;6277680;28;20637;-78
2024/03/01 05:17:57;;;;;;;29.15;15.90;;;;;;;;;;6278936;28;20147;-78
2024/03/01 05:20:59;;;;;;;30.00;13.93;;;;;;;;;;6272787;28;20579;-78
2024/03/01 05:24:04;;;;;;;27.83;13.93;;;;;;;;;;6292404;28;20542;-79
2024/03/01 05:27:13;;;;;;;26.90;14.55;;;;;;;;;;6271569;28;20076;-78
2024/03/01 05:30:18;;;;;;;25.98;14.23;;;;;;;;;;6238958;28;20056;-78
2024/03/01 05:33:39;;;;;;;24.67;13.48;;;;;;;;;;6242180;28;20131;-77
2024/03/01 05:36:43;;;;;;;23.67;12.73;;;;;;;;;;6250761;28;20044;-78
2024/03/01 05:39:45;;;;;;;18.88;12.23;;;;;;;;;;6264913;28;20059;-78
2024/03/01 05:42:47;;;;;;;24.27;13.52;;;;;;;;;;6285851;28;20051;-78
2024/03/01 05:45:50;;;;;;;25.27;12.98;;;;;;;;;;6254055;28;20052;-78
2024/03/01 05:48:54;;;;;;;;;;;;;;;;;;6272030;28;20044;-78
2024/03/01 05:51:56;;;;;;;24.25;11.73;;;;;;;;;;6258162;28;19923;-78
2024/03/01 05:55:00;;;;;;;25.55;13.45;;;;;;;;;;6253904;28;20062;-78
2024/03/01 05:58:02;;;;;;;28.20;17.05;;;;;;;;;;6258703;28;20055;-78
2024/03/01 06:01:07;;;;;;;24.20;13.18;;;;;;;;;;6268516;28;20078;-77
2024/03/01 06:04:11;;;;;;;26.48;14.55;;;;;;;;;;6295407;28;20051;-77
2024/03/01 06:07:14;;;;;;;33.15;21.13;;;;;;;;;;6282754;28;20441;-78
2024/03/01 06:10:16;;;;;;;32.03;16.85;;;;;;;;;;6274628;28;20052;-77
2024/03/01 06:13:19;;;;;;;28.42;17.48;;;;;;;;;;6271636;28;20041;-76
2024/03/01 06:16:22;;;;;;;26.85;14.82;;;;;;;;;;6278822;28;20836;-77
2024/03/01 06:19:24;;;;;;;30.63;17.63;;;;;;;;;;6264652;28;20044;-78
2024/03/01 06:22:29;;;;;;;27.05;16.17;;;;;;;;;;6286838;28;20033;-77
2024/03/01 06:25:33;;;;;;;42.22;25.13;;;;;;;;;;6289497;28;20050;-78
2024/03/01 06:28:35;;;;;;;33.67;19.50;;;;;;;;;;6289703;28;20245;-77
2024/03/01 06:31:38;;;;;;;33.63;20.25;;;;;;;;;;6264780;28;20049;-77
2024/03/01 06:34:40;;;;;;;33.50;17.63;;;;;;;;;;6272789;28;20114;-76
2024/03/01 06:37:42;;;;;;;32.55;20.48;;;;;;;;;;6253333;28;20048;-76
2024/03/01 06:40:44;;;;;;;31.42;17.90;;;;;;;;;;6282247;28;20051;-76
2024/03/01 06:43:46;;;;;;;30.90;18.25;;;;;;;;;;6272253;28;20048;-76
2024/03/01 06:46:49;;;;;;;30.50;17.40;;;;;;;;;;6286472;28;20041;-76
2024/03/01 06:49:52;;;;;;;30.48;17.65;;;;;;;;;;6267396;28;20055;-79
2024/03/01 06:52:54;;;;;;;26.15;14.93;;;;;;;;;;6258673;28;20032;-78
2024/03/01 06:55:58;;;;;;;28.35;16.58;;;;;;;;;;6284056;28;20048;-78
2024/03/01 06:59:00;;;;;;;25.70;14.13;;;;;;;;;;6282408;28;20078;-77
2024/03/01 07:02:02;;;;;;;28.63;15.90;;;;;;;;;;6306253;28;20767;-77
2024/03/01 07:05:05;;;;;;;28.67;20.20;;;;;;;;;;6279532;28;20080;-79
2024/03/01 07:08:08;;;;;;;24.63;14.07;;;;;;;;;;6255445;28;20047;-77
2024/03/01 07:11:10;;;;;;;26.70;15.13;;;;;;;;;;6287137;28;20040;-78
2024/03/01 07:14:13;;;;;;;29.13;15.90;;;;;;;;;;6259827;28;20037;-78
2024/03/01 07:17:15;;;;;;;27.15;15.52;;;;;;;;;;6262387;28;20039;-79
2024/03/01 07:20:18;;;;;;;29.17;14.68;;;;;;;;;;6279088;28;20047;-79
2024/03/01 07:23:21;;;;;;;34.08;17.40;;;;;;;;;;6270288;28;20131;-79
2024/03/01 07:26:23;;;;;;;29.02;15.13;;;;;;;;;;6281082;28;20048;-78
2024/03/01 07:29:27;;;;;;;36.83;23.77;;;;;;;;;;6273988;28;20044;-78
2024/03/01 07:32:29;;;;;;;27.35;17.08;;;;;;;;;;6249964;28;20068;-79
2024/03/01 07:35:31;;;;;;;32.58;17.27;;;;;;;;;;6271993;28;20135;-81
2024/03/01 07:38:34;;;;;;;29.58;17.08;;;;;;;;;;6271069;28;20074;-78
2024/03/01 07:41:36;;;;;;;31.58;17.48;;;;;;;;;;6249220;28;20045;-79
2024/03/01 07:44:38;;;;;;;30.25;17.60;;;;;;;;;;6275006;28;19956;-78
2024/03/01 07:47:42;;;;;;;29.75;17.40;;;;;;;;;;6266895;28;20395;-79
2024/03/01 07:50:44;;;;;;;35.28;17.55;;;;;;;;;;6273963;28;20796;-78
2024/03/01 07:53:47;;;;;;;32.03;16.30;;;;;;;;;;6257001;28;20553;-79
2024/03/01 07:56:50;;;;;;;31.40;16.90;;;;;;;;;;6285269;28;20040;-79
2024/03/01 07:59:52;;;;;;;34.13;16.73;;;;;;;;;;6268128;28;20502;-79
2024/03/01 08:03:06;;;;;;;36.42;19.17;;;;;;;;;;6280937;28;20051;-80
2024/03/01 08:06:09;;;;;;;37.97;18.95;;;;;;;;;;6293912;28;20044;-80
2024/03/01 08:09:17;;;;;;;28.52;16.50;;;;;;;;;;6268911;28;20044;-80
2024/03/01 08:12:19;;;;;;;33.45;17.80;;;;;;;;;;6273559;28;20043;-81
2024/03/01 08:15:25;;;;;;;35.17;18.45;;;;;;;;;;6280964;28;20561;-80
2024/03/01 08:18:27;;;;;;;33.03;19.15;;;;;;;;;;6244766;28;20190;-80
2024/03/01 08:21:30;;;;;;;29.50;17.60;;;;;;;;;;6250479;28;20170;-80
2024/03/01 08:24:35;;;;;;;34.30;22.05;;;;;;;;;;6278392;28;20512;-80
2024/03/01 08:27:37;;;;;;;36.90;19.88;;;;;;;;;;6265806;28;20442;-79
2024/03/01 08:30:45;;;;;;;33.35;18.55;;;;;;;;;;6274409;28;20048;-80
2024/03/01 08:33:48;;;;;;;35.53;19.13;;;;;;;;;;6242643;28;20049;-79
2024/03/01 08:36:52;;;;;;;35.17;23.88;;;;;;;;;;6255658;28;20528;-79
2024/03/01 08:39:55;;;;;;;37.38;20.48;;;;;;;;;;6278932;28;20414;-79
2024/03/01 08:42:58;;;;;;;37.47;19.42;;;;;;;;;;6240098;28;20432;-79
2024/03/01 08:46:01;;;;;;;30.00;17.00;;;;;;;;;;6274439;28;20059;-79
2024/03/01 08:49:32;;;;;;;35.97;17.83;;;;;;;;;;6261862;28;20158;-79
2024/03/01 08:52:37;;;;;;;38.22;20.52;;;;;;;;;;6283383;28;20151;-78
2024/03/01 08:55:42;;;;;;;34.45;21.33;;;;;;;;;;6271747;28;20036;-79
2024/03/01 08:58:46;;;;;;;31.95;16.98;;;;;;;;;;6274338;28;20055;-78
2024/03/01 09:01:49;;;;;;;31.95;20.65;;;;;;;;;;6283586;28;20037;-81
2024/03/01 09:04:53;;;;;;;34.03;19.25;;;;;;;;;;6275425;28;20048;-78
2024/03/01 09:07:57;;;;;;;42.90;22.13;;;;;;;;;;6293940;28;20082;-78
2024/03/01 09:11:00;;;;;;;38.70;21.77;;;;;;;;;;6269115;28;20155;-77
2024/03/01 09:14:03;;;;;;;41.60;21.00;;;;;;;;;;6272266;28;20051;-77
2024/03/01 09:17:11;;;;;;;39.10;20.20;;;;;;;;;;6269532;28;20089;-77
2024/03/01 09:20:22;;;;;;;34.33;19.70;;;;;;;;;;6301894;28;20070;-78
2024/03/01 09:23:26;;;;;;;46.28;24.85;;;;;;;;;;6248354;28;20028;-78
2024/03/01 09:26:29;;;;;;;39.58;22.70;;;;;;;;;;6276766;28;20064;-78
2024/03/01 09:29:35;;;;;;;36.53;21.52;;;;;;;;;;6257982;28;20426;-78
2024/03/01 09:32:38;;;;;;;38.67;19.95;;;;;;;;;;6276969;28;20040;-79
2024/03/01 09:35:41;;;;;;;36.33;18.65;;;;;;;;;;6271400;28;20044;-79
2024/03/01 09:38:43;;;;;;;39.60;22.33;;;;;;;;;;6279207;28;20052;-78
2024/03/01 09:41:49;;;;;;;35.67;19.92;;;;;;;;;;6295551;28;20032;-80
2024/03/01 09:45:19;;;;;;;40.47;21.65;;;;;;;;;;6272339;28;20064;-81
2024/03/01 09:48:31;;;;;;;36.60;20.92;;;;;;;;;;6306109;28;20059;-81
2024/03/01 09:51:45;;;;;;;36.03;22.00;;;;;;;;;;6284725;28;20047;-79
2024/03/01 09:55:09;;;;;;;34.08;19.00;;;;;;;;;;6286675;28;20036;-77
2024/03/01 09:58:18;;;;;;;37.17;21.95;;;;;;;;;;6255927;28;20060;-79
2024/03/01 10:01:30;;;;;;;38.78;20.95;;;;;;;;;;6306665;28;20082;-82
2024/03/01 10:04:51;;;;;;;34.85;19.30;;;;;;;;;;6266958;28;20048;-79
2024/03/01 10:08:15;;;;;;;34.22;20.58;;;;;;;;;;6262621;28;20113;-79
2024/03/01 10:11:39;;;;;;;34.53;19.50;;;;;;;;;;6292783;28;20045;-77
2024/03/01 10:14:50;;;;;;;44.33;20.50;;;;;;;;;;6257345;28;20405;-78
2024/03/01 10:17:52;;;;;;;;;;;;;;;;;;6295599;28;20056;-79
2024/03/01 10:21:33;;;;;;;33.55;22.50;;;;;;;;;;6287162;28;20074;-77
2024/03/01 10:25:00;;;;;;;32.35;18.67;;;;;;;;;;6280057;28;20071;-77
2024/03/01 10:28:18;;;;;;;33.67;19.45;;;;;;;;;;6268964;28;20760;-77
2024/03/01 10:31:39;;;;;;;34.85;20.70;;;;;;;;;;6276651;28;20055;-77
2024/03/01 10:35:05;;;;;;;34.05;18.10;;;;;;;;;;6252320;28;20047;-77
2024/03/01 10:38:17;;;;;;;35.50;20.30;;;;;;;;;;6274224;28;20076;-77
2024/03/01 10:41:28;;;;;;;38.72;18.15;;;;;;;;;;6277431;28;20382;-78
2024/03/01 10:44:42;;;;;;;;;;;;;;;;;;6241727;28;20834;-78
2024/03/01 10:47:45;;;;;;;34.75;22.83;;;;;;;;;;6263407;28;20389;-79
2024/03/01 10:50:56;;;;;;;41.55;23.67;;;;;;;;;;6269155;28;20097;-77
2024/03/01 10:53:59;;;;;;;37.35;19.02;;;;;;;;;;6245220;28;20052;-77
2024/03/01 10:57:07;;;;;;;31.58;19.35;;;;;;;;;;6256334;28;20052;-79
2024/03/01 11:00:13;;;;;;;31.13;17.33;;;;;;;;;;6268748;28;20158;-78
2024/03/01 11:03:24;;;;;;;31.88;15.80;;;;;;;;;;6276520;28;20080;-76
2024/03/01 11:06:40;;;;;;;33.45;17.50;;;;;;;;;;6276838;28;20184;-76
2024/03/01 11:09:57;;;;;;;35.83;17.77;;;;;;;;;;6293146;28;20436;-77
2024/03/01 11:13:11;;;;;;;;;;;;;;;;;;6297288;28;20075;-77
2024/03/01 11:16:15;;;;;;;29.77;16.67;;;;;;;;;;6278022;28;19924;-80
2024/03/01 11:19:24;;;;;;;29.27;16.85;;;;;;;;;;6273011;28;20521;-77
2024/03/01 11:22:28;;;;;;;31.27;15.57;;;;;;;;;;6279788;28;20052;-80
2024/03/01 11:26:03;;;;;;;26.63;15.10;;;;;;;;;;6269899;28;20414;-79
2024/03/01 11:29:07;;;;;;;31.60;16.33;;;;;;;;;;6256201;28;20060;-79
2024/03/01 11:32:17;;;;;;;30.52;16.88;;;;;;;;;;6261037;28;20109;-80
2024/03/01 11:36:17;;;;;;;26.05;16.92;;;;;;;;;;6296618;28;20047;-79
2024/03/01 11:39:27;;;;;;;24.67;15.10;;;;;;;;;;6218676;28;20068;-79
2024/03/01 11:42:36;;;;;;;;;;;;;;;;;;6294002;28;20521;-80
2024/03/01 11:45:42;;;;;;;26.75;14.20;;;;;;;;;;6286262;28;19924;-79
2024/03/01 11:49:16;;;;;;;28.67;16.60;;;;;;;;;;6284439;28;20040;-81
2024/03/01 11:52:28;;;;;;;27.75;15.43;;;;;;;;;;6275818;28;20052;-80
2024/03/01 11:55:40;;;;;;;23.92;14.85;;;;;;;;;;6286195;28;20053;-80
2024/03/01 11:58:50;;;;;;;26.08;14.85;;;;;;;;;;6297161;28;20040;-81
2024/03/01 12:02:07;;;;;;;22.05;12.45;;;;;;;;;;6276926;28;20064;-79
2024/03/01 12:05:24;;;;;;;21.83;13.45;;;;;;;;;;6270420;28;20047;-81
2024/03/01 12:08:41;;;;;;;;;;;;;;;;;;6271937;28;20204;-80
2024/03/01 12:12:04;;;;;;;26.02;13.48;;;;;;;;;;6265516;28;20545;-81
2024/03/01 12:15:08;;;;;;;27.13;13.93;;;;;;;;;;6252487;28;20047;-82
2024/03/01 12:18:35;;;;;;;31.35;15.68;;;;;;;;;;6280721;28;20067;-80
2024/03/01 12:21:43;;;;;;;30.10;13.95;;;;;;;;;;6248033;28;20063;-79
2024/03/01 12:24:49;;;;;;;25.80;15.50;;;;;;;;;;6296560;28;20694;-82
2024/03/01 12:28:10;;;;;;;24.00;13.55;;;;;;;;;;6276573;28;20375;-80
2024/03/01 12:31:27;;;;;;;20.05;12.82;;;;;;;;;;6294317;28;20159;-82
2024/03/01 12:34:39;;;;;;;23.65;13.48;;;;;;;;;;6266277;28;20097;-81
2024/03/01 12:38:04;;;;;;;23.67;13.93;;;;;;;;;;6240469;28;20052;-86
2024/03/01 12:41:15;;;;;;;22.45;12.05;;;;;;;;;;6281790;28;20059;-84
2024/03/01 12:44:30;;;;;;;19.88;11.68;;;;;;;;;;6281554;28;20078;-80
2024/03/01 12:47:33;;;;;;;19.33;11.52;;;;;;;;;;6277391;28;20107;-79
2024/03/01 12:51:11;;;;;;;19.38;13.02;;;;;;;;;;6272746;28;20044;-77
2024/03/01 12:54:17;;;;;;;21.15;12.55;;;;;;;;;;6267828;28;20052;-80
2024/03/01 12:58:19;;;;;;;15.63;10.48;;;;;;;;;;6295053;28;20041;-79
2024/03/01 13:01:36;;;;;;;21.58;12.32;;;;;;;;;;6292645;28;20086;-82
2024/03/01 13:05:25;;;;;;;23.77;13.52;;;;;;;;;;6291195;28;20169;-81
2024/03/01 13:08:40;;;;;;;22.50;13.30;;;;;;;;;;6252938;28;20044;-80
2024/03/01 13:11:48;;;;;;;20.92;11.07;;;;;;;;;;6283161;28;20047;-80
2024/03/01 13:14:56;;;;;;;24.98;12.95;;;;;;;;;;6309992;28;20033;-80
2024/03/01 13:18:07;;;;;;;23.20;12.52;;;;;;;;;;6271066;28;20040;-80
2024/03/01 13:21:29;;;;;;;24.77;14.40;;;;;;;;;;6286777;28;20036;-80
2024/03/01 13:24:43;;;;;;;30.88;16.58;;;;;;;;;;6280960;28;20047;-78
2024/03/01 13:27:56;;;;;;;25.27;12.15;;;;;;;;;;6302913;28;20041;-78
2024/03/01 13:31:09;;;;;;;24.42;12.55;;;;;;;;;;6270877;28;20122;-79
2024/03/01 13:34:13;;;;;;;27.40;12.15;;;;;;;;;;6257609;28;20043;-79
2024/03/01 13:37:36;;;;;;;20.55;12.05;;;;;;;;;;6284328;28;20046;-79
2024/03/01 13:40:47;;;;;;;21.27;12.18;;;;;;;;;;6267931;28;20052;-79
2024/03/01 13:44:03;;;;;;;23.15;13.32;;;;;;;;;;6277388;28;20145;-78
2024/03/01 13:47:21;;;;;;;18.73;10.55;;;;;;;;;;6295954;28;20302;-80
2024/03/01 13:50:38;;;;;;;23.27;12.65;;;;;;;;;;6293261;28;20043;-79
2024/03/01 13:53:55;;;;;;;22.73;13.15;;;;;;;;;;6300726;28;20044;-79
2024/03/01 13:56:57;;;;;;;20.38;12.30;;;;;;;;;;6289072;28;20067;-79
2024/03/01 14:00:03;;;;;;;22.52;11.27;;;;;;;;;;6293832;28;20059;-80
2024/03/01 14:03:14;;;;;;;18.60;11.65;;;;;;;;;;6281009;28;20043;-78
2024/03/01 14:06:21;;;;;;;19.80;12.52;;;;;;;;;;6268867;28;20052;-80
2024/03/01 14:09:28;;;;;;;19.00;12.10;;;;;;;;;;6293823;28;20571;-79
2024/03/01 14:12:30;;;;;;;24.40;11.82;;;;;;;;;;6303427;28;20051;-76
2024/03/01 14:15:32;;;;;;;25.80;13.45;;;;;;;;;;6284343;28;20120;-77
2024/03/01 14:18:35;;;;;;;24.20;13.38;;;;;;;;;;6277814;28;20048;-77
2024/03/01 14:21:40;;;;;;;24.67;14.25;;;;;;;;;;6296690;28;20055;-80
2024/03/01 14:24:42;;;;;;;26.48;13.68;;;;;;;;;;6296347;28;20071;-78
2024/03/01 14:27:49;;;;;;;19.52;11.05;;;;;;;;;;6297343;28;20222;-78
2024/03/01 14:30:51;;;;;;;21.80;13.32;;;;;;;;;;6288666;28;20040;-81
2024/03/01 14:33:58;;;;;;;21.27;13.48;;;;;;;;;;6278599;28;20105;-79
2024/03/01 14:37:04;;;;;;;27.23;15.27;;;;;;;;;;6280265;28;20044;-81
2024/03/01 14:40:08;;;;;;;20.38;11.32;;;;;;;;;;6280078;28;20138;-79
2024/03/01 14:43:10;;;;;;;22.38;16.20;;;;;;;;;;6300553;28;20150;-80
2024/03/01 14:46:35;;;;;;;25.55;16.48;;;;;;;;;;6279353;28;20068;-78
2024/03/01 14:49:43;;;;;;;19.75;14.65;;;;;;;;;;6284891;28;20168;-80
2024/03/01 14:52:46;;;;;;;21.80;13.02;;;;;;;;;;6296399;28;20040;-82
2024/03/01 14:55:49;;;;;;;21.17;13.00;;;;;;;;;;6290301;28;20043;-79
2024/03/01 14:58:56;;;;;;;21.60;12.77;;;;;;;;;;6292658;28;20135;-83
2024/03/01 15:01:59;;;;;;;23.90;13.35;;;;;;;;;;6270505;28;20063;-81
2024/03/01 15:05:03;;;;;;;21.63;12.77;;;;;;;;;;6256185;28;20127;-83
2024/03/01 15:08:07;;;;;;;24.80;11.10;;;;;;;;;;6261648;28;20456;-82
2024/03/01 15:11:15;;;;;;;23.10;13.23;;;;;;;;;;6282648;28;20705;-83
2024/03/01 15:14:25;;;;;;;21.38;13.05;;;;;;;;;;6274497;28;20723;-79
2024/03/01 15:17:28;;;;;;;22.27;12.55;;;;;;;;;;6264969;28;20711;-81
2024/03/01 15:20:41;;;;;;;25.23;12.95;;;;;;;;;;6286235;28;20052;-80
2024/03/01 15:23:44;;;;;;;24.08;12.55;;;;;;;;;;6268843;28;20043;-78
2024/03/01 15:26:47;;;;;;;23.33;12.63;;;;;;;;;;6292013;28;20492;-79
2024/03/01 15:29:55;;;;;;;23.67;13.65;;;;;;;;;;6320831;28;20250;-78
2024/03/01 15:32:59;;;;;;;21.52;13.07;;;;;;;;;;6279181;28;20055;-79
2024/03/01 15:36:03;;;;;;;20.95;10.70;;;;;;;;;;6295114;28;20044;-79
2024/03/01 15:39:09;;;;;;;23.33;13.30;;;;;;;;;;6300704;28;20084;-82
2024/03/01 15:42:12;;;;;;;22.60;13.20;;;;;;;;;;6282754;28;20171;-80
2024/03/01 15:45:15;;;;;;;22.88;13.30;;;;;;;;;;6272828;28;20747;-81
2024/03/01 15:48:22;;;;;;;22.20;12.57;;;;;;;;;;6292927;28;20036;-82
2024/03/01 15:51:26;;;;;;;25.70;13.18;;;;;;;;;;6255363;28;20585;-79
2024/03/01 15:54:29;;;;;;;28.63;14.63;;;;;;;;;;6275002;28;20121;-78
2024/03/01 15:57:32;;;;;;;26.35;13.90;;;;;;;;;;6299776;28;20037;-79
2024/03/01 16:00:38;;;;;;;26.42;13.55;;;;;;;;;;6299114;28;20060;-79
2024/03/01 16:03:40;;;;;;;29.73;14.82;;;;;;;;;;6304232;28;20048;-79
2024/03/01 16:06:42;;;;;;;28.90;17.48;;;;;;;;;;6293808;28;21039;-78
2024/03/01 16:09:45;;;;;;;30.92;19.10;;;;;;;;;;6287399;28;20089;-79
2024/03/01 16:12:55;;;;;;;27.08;18.77;;;;;;;;;;6282486;28;20050;-79
2024/03/01 16:16:00;;;;;;;22.73;13.43;;;;;;;;;;6270378;28;20048;-80
2024/03/01 16:19:08;;;;;;;26.95;15.15;;;;;;;;;;6285547;28;20057;-79
2024/03/01 16:22:10;;;;;;;30.40;16.70;;;;;;;;;;6278904;28;20048;-79
2024/03/01 16:25:14;;;;;;;30.13;20.20;;;;;;;;;;6291541;28;20067;-79
2024/03/01 16:28:20;;;;;;;30.77;20.33;;;;;;;;;;6270599;28;20165;-79
2024/03/01 16:31:24;;;;;;;30.05;16.08;;;;;;;;;;6294028;28;20051;-78
2024/03/01 16:34:29;;;;;;;26.35;14.10;;;;;;;;;;6281876;28;20044;-78
2024/03/01 16:37:31;;;;;;;28.15;14.60;;;;;;;;;;6270017;28;20063;-78
2024/03/01 16:40:33;;;;;;;32.10;14.15;;;;;;;;;;6284889;28;20060;-78
2024/03/01 16:43:44;;;;;;;27.00;15.23;;;;;;;;;;6264794;28;20048;-78
2024/03/01 16:46:46;;;;;;;27.08;17.33;;;;;;;;;;6279313;28;20056;-79
2024/03/01 16:49:51;;;;;;;30.02;18.27;;;;;;;;;;6266788;28;20557;-78
2024/03/01 16:52:53;;;;;;;26.58;17.95;;;;;;;;;;6292213;28;20525;-79
2024/03/01 16:56:01;;;;;;;27.35;15.73;;;;;;;;;;6281561;28;20082;-78
2024/03/01 16:59:07;;;;;;;28.25;15.20;;;;;;;;;;6258065;28;20048;-79
2024/03/01 17:02:20;;;;;;;27.38;13.27;;;;;;;;;;6266360;28;20842;-78
2024/03/01 17:05:44;;;;;;;25.33;14.05;;;;;;;;;;6278902;28;20129;-80
2024/03/01 17:08:51;;;;;;;26.58;14.00;;;;;;;;;;6278898;28;20545;-78
2024/03/01 17:11:55;;;;;;;22.92;13.90;;;;;;;;;;6260657;28;20036;-77
2024/03/01 17:14:57;;;;;;;26.92;13.70;;;;;;;;;;6267250;28;20075;-78
2024/03/01 17:18:00;;;;;;;23.33;13.10;;;;;;;;;;6275991;28;20424;-78
2024/03/01 17:21:03;;;;;;;21.55;11.73;;;;;;;;;;6275553;28;20080;-78
2024/03/01 17:24:06;;;;;;;22.67;13.48;;;;;;;;;;6278601;28;20059;-78
2024/03/01 17:27:09;;;;;;;20.83;12.32;;;;;;;;;;6277251;28;20131;-78
2024/03/01 17:30:13;;;;;;;23.50;14.75;;;;;;;;;;6278055;28;20397;-78
2024/03/01 17:33:17;;;;;;;25.33;16.63;;;;;;;;;;6272238;28;20052;-77
2024/03/01 17:36:21;;;;;;;25.85;14.48;;;;;;;;;;6266706;28;20044;-77
2024/03/01 17:39:24;;;;;;;22.10;11.13;;;;;;;;;;6282065;28;20051;-77
2024/03/01 17:42:27;;;;;;;20.88;11.63;;;;;;;;;;6269947;28;20059;-77
2024/03/01 17:45:31;;;;;;;18.33;10.27;;;;;;;;;;6280880;28;20113;-77
2024/03/01 17:48:34;;;;;;;22.08;12.73;;;;;;;;;;6293243;28;20104;-77
2024/03/01 17:51:36;;;;;;;20.33;11.43;;;;;;;;;;6265380;28;20037;-77
2024/03/01 17:54:39;;;;;;;21.60;13.75;;;;;;;;;;6270686;28;20049;-77
2024/03/01 17:57:45;;;;;;;95.78;34.28;;;;;;;;;;6271814;28;20646;-77
2024/03/01 18:00:47;;;;;;;112.30;34.75;;;;;;;;;;6300968;28;20068;-78
2024/03/01 18:03:53;;;;;;;;;;;;;;;;;;6262290;28;20056;-78
2024/03/01 18:07:00;;;;;;;28.48;15.73;;;;;;;;;;6267227;28;20378;-76